Time;durP1;ratioP1;P1;durP2;ratioP2;P2;SDS_P1;SDS_P2;PMS_P1;PMS_P2;Temp;Humidity;BMP_temperature;BMP_pressure;BME280_temperature;BME280_humidity;BME280_pressure;Samples;Min_cycle;Max_cycle;Signal;HPM_P1;HPM_P2
2020/12/07 00:02:22;;;;;;;21.75;12.65;;;;;;;3.15;76.12;100061.91;1696729;82;27491;-76
2020/12/07 00:04:47;;;;;;;22.40;12.13;;;;;;;3.13;76.00;100059.89;1688014;82;21153;-75
2020/12/07 00:07:14;;;;;;;21.83;12.73;;;;;;;3.06;76.13;100058.66;1700108;82;21925;-75
2020/12/07 00:09:40;;;;;;;23.75;13.22;;;;;;;3.05;76.00;100059.62;1695209;82;21271;-75
2020/12/07 00:12:05;;;;;;;24.33;12.73;;;;;;;2.99;76.08;100061.36;1693483;82;21077;-76
2020/12/07 00:14:31;;;;;;;22.67;12.03;;;;;;;2.97;76.19;100055.44;1691674;82;28361;-75
2020/12/07 00:16:57;;;;;;;17.65;10.55;;;;;;;2.98;76.15;100056.63;1688178;82;27047;-75
2020/12/07 00:19:23;;;;;;;19.85;10.68;;;;;;;3.03;75.97;100050.59;1696655;82;22282;-75
2020/12/07 00:21:48;;;;;;;20.53;11.90;;;;;;;3.03;75.97;100052.35;1692792;82;24517;-75
2020/12/07 00:24:14;;;;;;;19.30;11.73;;;;;;;3.04;75.86;100043.59;1689162;82;21839;-75
2020/12/07 00:26:44;;;;;;;18.67;11.33;;;;;;;3.04;75.78;100042.29;1685582;81;28992;-75
2020/12/07 00:29:10;;;;;;;23.45;12.43;;;;;;;2.99;75.82;100044.41;1689271;82;21621;-75
2020/12/07 00:31:36;;;;;;;19.93;10.60;;;;;;;2.96;75.98;100064.19;1692038;82;21361;-75
2020/12/07 00:34:02;;;;;;;18.43;10.67;;;;;;;2.96;75.98;100058.97;1694991;81;24656;-75
2020/12/07 00:36:30;;;;;;;18.33;10.70;;;;;;;2.96;75.88;100056.36;1689571;82;20979;-75
2020/12/07 00:38:56;;;;;;;20.02;11.63;;;;;;;3.04;75.69;100060.07;1688959;82;21173;-75
2020/12/07 00:41:24;;;;;;;22.87;12.37;;;;;;;3.03;75.65;100058.88;1688483;82;26800;-75
2020/12/07 00:43:51;;;;;;;22.98;13.45;;;;;;;2.94;75.74;100060.87;1695534;82;21218;-76
2020/12/07 00:46:17;;;;;;;19.23;12.28;;;;;;;2.89;76.09;100050.77;1688439;82;21228;-76
2020/12/07 00:48:42;;;;;;;21.37;11.45;;;;;;;2.96;75.95;100052.45;1683129;82;21209;-76
2020/12/07 00:51:08;;;;;;;22.20;11.35;;;;;;;2.90;75.94;100057.63;1689412;82;26734;-75
2020/12/07 00:53:34;;;;;;;20.25;11.78;;;;;;;2.90;76.03;100052.89;1698232;81;27196;-75
2020/12/07 00:56:00;;;;;;;19.87;11.80;;;;;;;2.92;75.88;100055.76;1684065;82;22154;-76
2020/12/07 00:58:26;;;;;;;21.87;12.20;;;;;;;2.94;75.65;100045.22;1683681;81;21662;-76
2020/12/07 01:00:52;;;;;;;22.27;12.43;;;;;;;2.98;75.68;100050.55;1685561;82;21090;-75
2020/12/07 01:03:17;;;;;;;21.00;12.28;;;;;;;2.91;75.75;100055.87;1689757;81;26744;-75
2020/12/07 01:05:43;;;;;;;17.65;10.75;;;;;;;2.95;75.61;100052.94;1696787;82;25170;-75
2020/12/07 01:08:09;;;;;;;16.67;9.90;;;;;;;2.93;75.64;100053.97;1694457;82;21336;-76
2020/12/07 01:10:35;;;;;;;16.87;10.43;;;;;;;2.95;75.43;100041.64;1699592;82;22552;-75
2020/12/07 01:13:01;;;;;;;18.33;10.13;;;;;;;2.92;75.17;100041.86;1679610;83;21227;-76
2020/12/07 01:15:26;;;;;;;17.07;10.48;;;;;;;2.88;75.32;100039.48;1688170;82;28794;-76
2020/12/07 01:17:52;;;;;;;17.50;10.63;;;;;;;2.83;75.28;100041.59;1689241;82;26185;-76
2020/12/07 01:20:18;;;;;;;18.00;10.20;;;;;;;2.76;75.39;100035.12;1695607;82;21026;-76
2020/12/07 01:22:43;;;;;;;15.80;9.67;;;;;;;2.80;75.47;100033.98;1688521;82;23958;-75
2020/12/07 01:25:09;;;;;;;19.03;9.83;;;;;;;2.73;75.53;100022.31;1690940;82;21034;-76
2020/12/07 01:27:35;;;;;;;15.37;9.97;;;;;;;2.68;75.63;100019.20;1688467;83;26793;-76
2020/12/07 01:30:01;;;;;;;18.00;9.68;;;;;;;2.68;75.67;100007.47;1685698;82;25736;-75
2020/12/07 01:32:27;;;;;;;16.97;10.27;;;;;;;2.69;75.56;100016.48;1682871;82;21283;-76
2020/12/07 01:34:52;;;;;;;17.27;9.90;;;;;;;2.72;75.63;100007.63;1688043;82;23517;-76
2020/12/07 01:37:18;;;;;;;19.40;10.23;;;;;;;2.64;75.92;99992.98;1680385;81;21132;-75
2020/12/07 01:39:44;;;;;;;21.45;10.25;;;;;;;2.62;76.00;99993.57;1685880;82;28463;-76
2020/12/07 01:42:10;;;;;;;19.13;10.50;;;;;;;2.59;76.18;99989.88;1687131;82;24313;-76
2020/12/07 01:44:35;;;;;;;17.33;10.57;;;;;;;2.65;76.44;99988.14;1698007;82;21382;-75
2020/12/07 01:47:04;;;;;;;19.53;10.77;;;;;;;2.72;76.32;99986.77;1688812;81;20994;-75
2020/12/07 01:49:30;;;;;;;17.42;9.65;;;;;;;2.59;76.78;99989.88;1690479;82;21648;-76
2020/12/07 01:51:55;;;;;;;18.32;10.53;;;;;;;2.64;76.59;99990.38;1681054;83;29094;-76
2020/12/07 01:54:21;;;;;;;16.02;9.85;;;;;;;2.74;76.40;99980.96;1681502;83;25331;-76
2020/12/07 01:56:47;;;;;;;17.63;10.30;;;;;;;2.75;76.08;99989.16;1700686;82;21249;-76
2020/12/07 01:59:12;;;;;;;16.23;9.43;;;;;;;2.53;76.39;99974.19;1691620;82;20931;-76
2020/12/07 02:01:38;;;;;;;14.83;8.97;;;;;;;2.47;76.07;99981.99;1691052;82;21623;-76
2020/12/07 02:04:04;;;;;;;15.80;8.53;;;;;;;2.35;76.09;99997.19;1697438;82;28286;-76
2020/12/07 02:06:30;;;;;;;17.47;9.20;;;;;;;2.36;76.09;99998.01;1694388;81;21067;-75
2020/12/07 02:08:55;;;;;;;12.97;7.93;;;;;;;2.29;76.28;99989.31;1687611;82;21212;-76
2020/12/07 02:11:21;;;;;;;13.63;7.73;;;;;;;2.31;76.37;100000.94;1704381;81;21635;-75
2020/12/07 02:13:47;;;;;;;15.73;8.43;;;;;;;2.35;76.13;99997.19;1684624;83;21145;-76
2020/12/07 02:16:13;;;;;;;15.60;8.40;;;;;;;2.39;76.00;99990.80;1696354;81;27479;-76
2020/12/07 02:18:38;;;;;;;13.22;8.55;;;;;;;2.45;75.91;99991.67;1700633;82;25686;-76
2020/12/07 02:21:04;;;;;;;14.73;8.27;;;;;;;2.53;75.56;99989.00;1694797;82;21376;-76
2020/12/07 02:23:30;;;;;;;13.67;8.20;;;;;;;2.50;75.50;99990.90;1682146;83;24769;-75
2020/12/07 02:25:56;;;;;;;15.07;8.47;;;;;;;2.43;75.52;99996.17;1687901;82;21636;-76
2020/12/07 02:28:22;;;;;;;17.53;8.90;;;;;;;2.43;75.63;99983.14;1693372;82;27315;-76
2020/12/07 02:30:48;;;;;;;14.75;9.10;;;;;;;2.45;75.79;99983.85;1700222;82;21219;-76
2020/12/07 02:33:13;;;;;;;14.77;8.77;;;;;;;2.41;75.76;99980.27;1695761;81;21443;-76
2020/12/07 02:35:39;;;;;;;13.80;8.97;;;;;;;2.36;75.93;99979.28;1690884;82;24595;-76
2020/12/07 02:38:05;;;;;;;15.40;8.83;;;;;;;2.34;76.13;99979.88;1691730;82;21190;-76
2020/12/07 02:40:31;;;;;;;14.10;8.53;;;;;;;2.47;75.97;99974.62;1683519;83;27915;-76
2020/12/07 02:42:56;;;;;;;15.03;8.03;;;;;;;2.41;76.13;99986.33;1684958;82;25242;-76
2020/12/07 02:45:22;;;;;;;16.43;9.30;;;;;;;2.44;76.18;99969.63;1699805;82;21465;-76
2020/12/07 02:47:48;;;;;;;15.37;9.40;;;;;;;2.33;76.58;99969.08;1688446;82;21463;-77
2020/12/07 02:50:14;;;;;;;17.67;10.20;;;;;;;2.41;76.38;99972.45;1691973;82;20978;-75
2020/12/07 02:52:40;;;;;;;13.90;8.73;;;;;;;2.37;76.66;99966.62;1680109;83;21178;-76
2020/12/07 02:55:09;;;;;;;17.97;9.63;;;;;;;2.27;76.75;99974.27;1697494;82;26230;-76
2020/12/07 02:57:35;;;;;;;15.30;8.28;;;;;;;2.22;77.01;99965.95;1690492;82;21826;-76
2020/12/07 03:00:00;;;;;;;15.10;8.97;;;;;;;;;;1684347;82;21636;-76
2020/12/07 03:02:26;;;;;;;15.25;8.90;;;;;;;2.31;76.71;99965.76;1689803;82;21049;-76
2020/12/07 03:04:52;;;;;;;11.73;7.60;;;;;;;2.31;76.73;99961.84;1682259;82;29336;-76
2020/12/07 03:07:18;;;;;;;13.03;7.33;;;;;;;2.36;76.62;99962.34;1701897;81;26232;-75
2020/12/07 03:09:44;;;;;;;13.57;7.80;;;;;;;2.42;76.66;99967.12;1696383;82;21093;-76
2020/12/07 03:12:10;;;;;;;12.58;8.20;;;;;;;2.46;76.56;99974.28;1695980;82;21255;-76
2020/12/07 03:14:36;;;;;;;16.05;9.15;;;;;;;2.43;76.60;99968.80;1692138;81;21324;-76
2020/12/07 03:17:03;;;;;;;19.17;9.13;;;;;;;2.43;76.44;99966.20;1687752;82;27781;-75
2020/12/07 03:19:28;;;;;;;15.07;8.40;;;;;;;2.36;76.45;99954.53;1697931;82;21185;-76
2020/12/07 03:21:54;;;;;;;11.87;7.57;;;;;;;2.36;76.40;99953.70;1679715;82;21269;-76
2020/12/07 03:24:20;;;;;;;25.83;8.00;;;;;;;2.37;76.38;99950.17;1690516;82;23563;-76
2020/12/07 03:26:46;;;;;;;13.23;8.57;;;;;;;2.24;76.65;99953.64;1688411;82;20950;-76
2020/12/07 03:29:11;;;;;;;12.10;7.73;;;;;;;2.29;76.50;99953.31;1676954;83;26948;-75
2020/12/07 03:31:38;;;;;;;12.83;7.83;;;;;;;2.27;76.63;99958.64;1688174;81;27657;-75
2020/12/07 03:34:05;;;;;;;15.45;7.33;;;;;;;2.34;76.62;99959.03;1684670;82;22011;-75
2020/12/07 03:36:31;;;;;;;13.32;8.05;;;;;;;2.34;76.52;99961.64;1688305;81;21206;-75
2020/12/07 03:38:57;;;;;;;14.53;8.03;;;;;;;2.35;76.41;99960.70;1689708;82;21053;-75
2020/12/07 03:41:22;;;;;;;13.87;7.97;;;;;;;2.39;76.42;99984.77;1697039;81;24934;-75
2020/12/07 03:43:48;;;;;;;16.87;7.63;;;;;;;2.39;76.23;99976.47;1691482;81;26220;-74
2020/12/07 03:46:14;;;;;;;11.93;7.07;;;;;;;2.36;76.33;99970.16;1696469;82;22007;-76
2020/12/07 03:48:40;;;;;;;10.97;6.77;;;;;;;2.33;76.31;99966.47;1693743;82;22290;-75
2020/12/07 03:51:06;;;;;;;12.77;7.10;;;;;;;2.21;76.64;99968.66;1684357;82;20990;-75
2020/12/07 03:53:34;;;;;;;12.73;7.27;;;;;;;2.20;76.67;99982.14;1688876;81;27792;-75
2020/12/07 03:56:00;;;;;;;13.13;7.28;;;;;;;2.23;76.62;99983.70;1700815;81;21675;-75
2020/12/07 03:58:26;;;;;;;11.95;7.12;;;;;;;2.33;76.52;99983.41;1694087;82;21817;-75
2020/12/07 04:00:53;;;;;;;11.55;6.60;;;;;;;2.39;76.17;99988.19;1684788;83;21293;-75
2020/12/07 04:03:20;;;;;;;15.98;7.72;;;;;;;2.41;76.15;99983.73;1689907;82;21727;-75
2020/12/07 04:05:48;;;;;;;11.90;7.30;;;;;;;2.51;76.15;99976.08;1685452;82;21812;-75
2020/12/07 04:08:13;;;;;;;12.00;6.78;;;;;;;2.58;75.63;99971.26;1690653;81;21681;-76
2020/12/07 04:10:39;;;;;;;11.70;6.80;;;;;;;2.65;75.28;99968.10;1707209;82;21195;-75
2020/12/07 04:13:05;;;;;;;10.70;6.47;;;;;;;2.52;75.47;99964.73;1692470;82;23699;-75
2020/12/07 04:15:32;;;;;;;11.18;6.72;;;;;;;2.35;75.93;99964.61;1692653;82;21627;-75
2020/12/07 04:17:58;;;;;;;10.60;6.20;;;;;;;2.29;76.29;99961.14;1697006;82;21624;-76
2020/12/07 04:20:24;;;;;;;9.83;6.05;;;;;;;2.32;76.25;99968.73;1699762;81;21181;-76
2020/12/07 04:22:50;;;;;;;11.77;6.97;;;;;;;2.37;75.96;99961.42;1688010;82;21203;-76
2020/12/07 04:25:16;;;;;;;14.10;6.70;;;;;;;2.28;76.20;99972.00;1691765;81;21173;-76
2020/12/07 04:27:42;;;;;;;10.10;6.75;;;;;;;2.24;76.32;99964.06;1680690;82;21212;-75
2020/12/07 04:30:08;;;;;;;11.08;6.62;;;;;;;2.21;76.32;99966.88;1696322;81;26805;-76
2020/12/07 04:32:34;;;;;;;11.00;6.50;;;;;;;2.22;76.27;99967.70;1694461;82;26572;-75
2020/12/07 04:34:59;;;;;;;13.27;7.10;;;;;;;2.20;76.41;99963.91;1689620;82;21197;-75
2020/12/07 04:37:25;;;;;;;9.60;6.57;;;;;;;2.14;76.55;99960.42;1695696;82;22548;-75
2020/12/07 04:39:51;;;;;;;9.15;6.03;;;;;;;2.18;76.56;99968.88;1700893;81;21178;-75
2020/12/07 04:42:17;;;;;;;13.37;6.60;;;;;;;2.24;76.48;99963.23;1685014;82;25798;-76
2020/12/07 04:44:43;;;;;;;9.98;6.62;;;;;;;2.19;76.51;99956.19;1696937;81;25431;-75
2020/12/07 04:47:10;;;;;;;12.30;6.47;;;;;;;2.17;76.58;99965.42;1682751;82;21576;-75
2020/12/07 04:49:35;;;;;;;13.30;6.70;;;;;;;2.09;76.60;99957.31;1682402;82;21279;-75
2020/12/07 04:52:01;;;;;;;12.40;6.60;;;;;;;;;;1696934;82;21172;-75
2020/12/07 04:54:27;;;;;;;10.13;6.08;;;;;;;2.08;76.86;99951.28;1680859;81;21025;-76
2020/12/07 04:56:56;;;;;;;11.53;6.50;;;;;;;2.15;76.66;99947.29;1694579;82;23314;-76
2020/12/07 04:59:22;;;;;;;11.28;6.33;;;;;;;2.17;76.60;99952.88;1689425;82;21201;-75
2020/12/07 05:01:48;;;;;;;13.37;6.73;;;;;;;2.13;76.64;99959.59;1691420;82;21687;-76
2020/12/07 05:04:13;;;;;;;13.60;6.70;;;;;;;2.10;76.70;99950.69;1697604;82;21100;-76
2020/12/07 05:06:39;;;;;;;10.70;6.37;;;;;;;2.10;76.68;99965.02;1694291;82;26986;-76
2020/12/07 05:09:05;;;;;;;9.07;6.00;;;;;;;2.13;76.51;99959.59;1634751;84;25256;-77
2020/12/07 05:11:31;;;;;;;11.00;6.83;;;;;;;2.10;76.51;99953.78;1687237;82;21719;-76
2020/12/07 05:14:04;;;;;;;11.47;6.83;;;;;;;2.12;76.56;99957.92;1698101;82;21008;-76
2020/12/07 05:16:28;;;;;;;14.03;6.78;;;;;;;2.17;76.52;99960.69;1679841;82;21182;-76
2020/12/07 05:18:54;;;;;;;10.20;6.10;;;;;;;2.12;76.49;99947.50;1694615;81;21217;-76
2020/12/07 05:21:20;;;;;;;12.90;7.30;;;;;;;2.14;76.45;99960.42;1694319;81;25420;-76
2020/12/07 05:23:53;;;;;;;11.53;6.60;;;;;;;2.12;76.27;99960.53;1692123;82;21193;-76
2020/12/07 05:26:20;;;;;;;11.08;7.03;;;;;;;2.08;76.41;99966.05;1690724;82;21185;-75
2020/12/07 05:28:55;;;;;;;10.08;6.35;;;;;;;2.03;76.44;99959.04;1688782;83;21585;-75
2020/12/07 05:31:22;;;;;;;10.28;5.75;;;;;;;2.04;76.54;99955.03;1677024;82;21251;-75
2020/12/07 05:33:48;;;;;;;9.83;5.95;;;;;;;2.07;76.61;99944.39;1704850;82;21254;-75
2020/12/07 05:36:17;;;;;;;12.63;7.20;;;;;;;2.10;76.44;99952.00;1681894;82;21210;-75
2020/12/07 05:38:44;;;;;;;12.35;6.83;;;;;;;2.10;76.47;99944.19;1682952;82;21556;-75
2020/12/07 05:41:13;;;;;;;11.73;7.58;;;;;;;2.10;76.50;99948.57;1697315;82;21565;-75
2020/12/07 05:43:39;;;;;;;12.10;7.15;;;;;;;2.11;76.45;99935.44;1693653;82;21669;-75
2020/12/07 05:46:05;;;;;;;13.60;7.73;;;;;;;2.12;76.43;99944.89;1692572;82;25226;-76
2020/12/07 05:48:34;;;;;;;13.32;7.83;;;;;;;2.15;76.40;99950.38;1691988;82;21201;-75
2020/12/07 05:51:05;;;;;;;13.38;7.47;;;;;;;2.06;76.47;99931.00;1686652;82;21521;-76
2020/12/07 05:53:36;;;;;;;11.55;6.78;;;;;;;2.15;76.17;99939.47;1696861;81;21148;-78
2020/12/07 05:56:04;;;;;;;14.70;7.65;;;;;;;2.25;75.91;99938.83;1686232;82;21765;-77
2020/12/07 05:58:30;;;;;;;13.10;7.58;;;;;;;2.25;75.80;99940.98;1693398;82;21232;-77
2020/12/07 06:00:58;;;;;;;13.20;7.58;;;;;;;2.15;75.93;99944.69;1698000;82;21196;-76
2020/12/07 06:03:24;;;;;;;12.90;7.30;;;;;;;2.25;75.76;99950.55;1695933;81;21175;-76
2020/12/07 06:05:49;;;;;;;13.77;7.63;;;;;;;2.30;75.71;99949.75;1689094;82;21060;-78
2020/12/07 06:08:21;;;;;;;12.83;7.40;;;;;;;2.13;75.97;99947.87;1697276;82;25130;-76
2020/12/07 06:10:51;;;;;;;12.85;7.85;;;;;;;2.18;75.86;99942.83;1698256;82;21172;-75
2020/12/07 06:13:20;;;;;;;15.20;7.95;;;;;;;2.21;75.88;99940.00;1686197;82;21159;-76
2020/12/07 06:15:47;;;;;;;12.75;7.60;;;;;;;2.20;75.89;99946.14;1691847;82;21287;-76
2020/12/07 06:18:31;;;;;;;13.55;7.62;;;;;;;2.21;75.81;99953.03;1694360;82;21188;-76
2020/12/07 06:21:06;;;;;;;13.93;7.67;;;;;;;2.09;76.02;99951.62;1691989;82;21220;-76
2020/12/07 06:23:35;;;;;;;16.40;8.13;;;;;;;2.07;76.37;99957.42;1689768;82;21192;-79
2020/12/07 06:26:03;;;;;;;16.10;8.93;;;;;;;2.07;76.24;99958.72;1671893;83;23549;-78
2020/12/07 06:28:33;;;;;;;;;;;;;;;2.06;76.41;99964.03;1695239;81;21216;-77
2020/12/07 06:31:06;;;;;;;13.13;7.72;;;;;;;2.07;76.24;99970.44;1693775;82;20305;-79
2020/12/07 06:33:41;;;;;;;16.20;7.75;;;;;;;2.10;76.01;99950.69;1692961;82;21197;-77
2020/12/07 06:36:25;;;;;;;18.98;9.28;;;;;;;2.08;75.90;99955.19;1699787;82;21216;-76
2020/12/07 06:38:51;;;;;;;14.83;8.35;;;;;;;2.02;76.00;99951.70;1674663;82;21393;-78
2020/12/07 06:41:41;;;;;;;15.40;8.70;;;;;;;1.98;75.93;99945.03;1703004;81;21264;-81
2020/12/07 06:44:17;;;;;;;14.43;7.70;;;;;;;1.98;76.02;99930.70;1690872;81;21430;-77
2020/12/07 06:47:03;;;;;;;14.87;7.67;;;;;;;1.95;76.02;99934.83;1688563;82;21188;-76
2020/12/07 06:49:37;;;;;;;15.48;8.40;;;;;;;2.02;76.02;99932.63;1688699;82;21223;-76
2020/12/07 06:52:13;;;;;;;15.70;8.43;;;;;;;1.99;75.89;99945.41;1688557;82;21195;-75
2020/12/07 06:57:29;;;;;;;15.63;7.87;;;;;;;2.06;75.58;99964.86;1704606;82;21212;-75
2020/12/07 07:00:17;;;;;;;14.53;7.47;;;;;;;2.09;75.41;99963.34;1696113;82;21648;-76
2020/12/07 07:02:48;;;;;;;15.63;8.83;;;;;;;2.09;75.31;99969.86;1700439;81;21716;-77
2020/12/07 07:05:16;;;;;;;13.58;8.03;;;;;;;2.07;75.25;99952.21;1698853;82;21216;-77
2020/12/07 07:07:41;;;;;;;16.30;7.80;;;;;;;2.01;75.22;99960.45;1691261;82;21212;-75
2020/12/07 07:10:09;;;;;;;14.80;8.27;;;;;;;1.99;75.19;99959.73;1705278;81;21016;-76
2020/12/07 07:12:36;;;;;;;14.10;7.37;;;;;;;2.04;75.31;99960.23;1706191;82;21091;-75
2020/12/07 07:15:04;;;;;;;12.03;6.80;;;;;;;2.01;75.24;99961.75;1691600;83;21178;-75
2020/12/07 07:17:33;;;;;;;16.97;8.08;;;;;;;2.11;74.93;99961.48;1687395;82;21367;-75
2020/12/07 07:19:59;;;;;;;13.50;7.75;;;;;;;2.10;74.91;99957.20;1698420;82;21255;-79
2020/12/07 07:22:26;;;;;;;13.22;7.33;;;;;;;2.06;75.04;99967.46;1704193;82;21276;-76
2020/12/07 07:25:06;;;;;;;15.90;8.08;;;;;;;2.01;74.96;99960.45;1705097;82;21211;-76
2020/12/07 07:30:12;;;;;;;15.58;7.80;;;;;;;1.98;74.79;99958.05;1697734;82;21588;-76
2020/12/07 07:32:43;;;;;;;14.70;7.97;;;;;;;2.08;74.79;99970.81;1695837;82;20994;-76
2020/12/07 07:35:10;;;;;;;14.38;7.60;;;;;;;2.02;74.54;99956.91;1686128;82;21165;-76
2020/12/07 07:37:36;;;;;;;15.60;7.35;;;;;;;2.03;74.45;99953.35;1690592;82;21132;-77
2020/12/07 07:40:07;;;;;;;14.47;7.70;;;;;;;2.03;74.48;99965.07;1701083;81;21628;-78
2020/12/07 07:42:36;;;;;;;14.50;7.55;;;;;;;2.04;74.46;99962.84;1704728;82;21934;-77
2020/12/07 07:45:03;;;;;;;15.80;7.97;;;;;;;2.18;74.22;99959.76;1688744;82;22214;-77
2020/12/07 07:47:33;;;;;;;13.30;6.97;;;;;;;2.13;74.10;99938.77;1657307;83;21656;-75
2020/12/07 08:17:16;;;;;;;15.90;7.92;;;;;;;2.12;73.49;99970.95;1683910;82;21164;-77
2020/12/07 08:19:43;;;;;;;16.55;7.83;;;;;;;2.17;73.34;99971.93;1686176;82;21213;-79
2020/12/07 08:22:19;;;;;;;16.27;8.30;;;;;;;2.25;73.28;99965.73;1687369;83;21193;-79
2020/12/07 08:24:59;;;;;;;17.65;8.28;;;;;;;2.26;72.97;99966.56;1687296;81;21234;-80
2020/12/07 08:27:35;;;;;;;15.80;8.00;;;;;;;2.21;72.76;99974.70;1691258;82;21212;-76
2020/12/07 08:30:06;;;;;;;14.55;7.53;;;;;;;2.17;72.80;99971.11;1694080;82;21232;-77
2020/12/07 08:32:32;;;;;;;14.38;7.42;;;;;;;2.17;72.56;99969.80;1686419;82;21228;-79
2020/12/07 08:34:58;;;;;;;14.98;7.45;;;;;;;2.21;72.58;99973.39;1696967;82;22021;-83
2020/12/07 08:37:25;;;;;;;16.27;8.08;;;;;;;2.21;72.48;99971.27;1687831;82;22277;-77
2020/12/07 08:39:52;;;;;;;17.00;7.60;;;;;;;2.16;72.17;99979.41;1686619;81;21584;-79
2020/12/07 08:42:21;;;;;;;14.05;7.72;;;;;;;2.18;72.36;99979.30;1690337;82;21240;-80
2020/12/07 08:44:47;;;;;;;13.78;7.20;;;;;;;2.26;71.96;99961.34;1683525;82;21640;-76
2020/12/07 08:47:14;;;;;;;15.63;8.10;;;;;;;2.23;72.07;99969.38;1673333;82;21198;-81
2020/12/07 08:49:48;;;;;;;18.07;7.55;;;;;;;2.33;71.90;99974.29;1691240;82;21255;-77
2020/12/07 08:52:07;;;;;;;15.48;8.10;;;;;;;2.37;71.80;99979.66;1695808;82;21274;-78
2020/12/07 08:54:33;;;;;;;15.80;7.67;;;;;;;2.33;71.58;99981.66;1688956;82;24985;-79
2020/12/07 08:56:59;;;;;;;16.10;8.00;;;;;;;2.31;71.49;99973.58;1688859;81;24220;-79
2020/12/07 08:59:25;;;;;;;15.00;7.20;;;;;;;2.34;71.62;99974.66;1687048;82;21838;-80
2020/12/07 09:01:51;;;;;;;14.47;7.60;;;;;;;2.37;71.44;99977.05;1683832;83;21754;-78
2020/12/07 09:04:16;;;;;;;15.90;7.40;;;;;;;2.34;71.21;99966.84;1698604;81;20958;-78
2020/12/07 09:06:44;;;;;;;12.93;7.00;;;;;;;2.41;70.92;99974.61;1699568;81;26372;-78
2020/12/07 09:09:09;;;;;;;;;;;;;;;2.42;70.54;99978.03;1696096;82;21406;-77
2020/12/07 09:11:35;;;;;;;13.58;7.70;;;;;;;2.34;70.36;99965.06;1689135;82;21278;-78
2020/12/07 09:14:02;;;;;;;15.37;7.53;;;;;;;2.39;70.30;99969.95;1674056;83;20998;-78
2020/12/07 09:16:28;;;;;;;14.83;7.67;;;;;;;2.46;70.22;99963.37;1692989;81;21274;-79
2020/12/07 09:18:54;;;;;;;13.87;7.60;;;;;;;2.40;70.48;99974.72;1694646;81;26944;-78
2020/12/07 09:21:20;;;;;;;14.05;7.42;;;;;;;2.49;70.50;99960.55;1685925;82;21202;-80
2020/12/07 09:23:45;;;;;;;15.50;7.93;;;;;;;2.45;70.43;99955.19;1678451;83;21942;-78
2020/12/07 09:26:12;;;;;;;16.43;8.07;;;;;;;2.31;70.84;99952.73;1695252;81;21041;-79
2020/12/07 09:28:37;;;;;;;17.27;8.35;;;;;;;2.32;70.76;99960.92;1695674;82;21221;-78
2020/12/07 09:31:07;;;;;;;15.97;8.07;;;;;;;2.21;70.94;99964.75;1688114;82;26037;-78
2020/12/07 09:33:36;;;;;;;14.70;7.83;;;;;;;2.25;70.95;99963.58;1688840;82;21201;-79
2020/12/07 09:36:03;;;;;;;15.35;7.80;;;;;;;2.26;70.77;99962.66;1678823;83;21211;-81
2020/12/07 09:38:29;;;;;;;15.83;7.75;;;;;;;2.29;70.81;99958.05;1680795;82;21112;-79
2020/12/07 09:40:55;;;;;;;16.13;8.70;;;;;;;2.34;70.63;99956.42;1690719;82;20978;-80
2020/12/07 09:43:20;;;;;;;16.53;7.60;;;;;;;2.42;70.18;99963.70;1688570;82;27930;-80
2020/12/07 09:45:46;;;;;;;16.10;8.05;;;;;;;2.46;70.12;99968.59;1691594;82;21192;-79
2020/12/07 09:48:12;;;;;;;17.37;7.77;;;;;;;2.39;70.17;99966.52;1697176;81;21609;-79
2020/12/07 09:50:38;;;;;;;16.00;8.47;;;;;;;2.51;70.09;99964.35;1689144;81;23160;-79
2020/12/07 09:53:08;;;;;;;17.63;8.03;;;;;;;2.56;70.00;99971.84;1691552;83;20990;-79
2020/12/07 09:55:31;;;;;;;;;;;;;;;2.53;69.99;99959.03;1686694;82;21200;-79
2020/12/07 09:57:57;;;;;;;17.15;8.53;;;;;;;2.44;69.71;99965.27;1693413;82;20227;-81
2020/12/07 10:00:22;;;;;;;13.73;7.50;;;;;;;2.47;69.68;99952.02;1690606;81;21357;-80
2020/12/07 10:02:48;;;;;;;15.23;7.73;;;;;;;2.43;69.77;99960.16;1694586;82;20982;-79
2020/12/07 10:05:14;;;;;;;18.37;8.20;;;;;;;2.48;69.83;99961.48;1695079;82;21576;-80
2020/12/07 10:07:42;;;;;;;15.93;8.20;;;;;;;2.51;69.99;99956.05;1690055;82;26301;-82
2020/12/07 10:10:07;;;;;;;;;;;;;;;2.51;69.65;99966.48;1694899;82;21169;-79
2020/12/07 10:12:33;;;;;;;18.10;8.25;;;;;;;2.54;69.60;99967.22;1704425;82;21258;-80
2020/12/07 10:15:00;;;;;;;17.93;8.50;;;;;;;2.46;69.77;99969.89;1679828;83;20958;-80
2020/12/07 10:17:26;;;;;;;17.05;8.23;;;;;;;2.44;69.68;99957.90;1690113;82;21137;-80
2020/12/07 10:19:52;;;;;;;17.05;7.33;;;;;;;2.39;69.67;99946.50;1682489;82;28880;-80
2020/12/07 10:22:18;;;;;;;19.05;7.97;;;;;;;2.35;69.79;99963.31;1689835;82;22319;-79
2020/12/07 10:24:44;;;;;;;19.33;8.47;;;;;;;2.32;69.94;99964.83;1684864;82;21208;-80
2020/12/07 10:27:10;;;;;;;15.60;8.33;;;;;;;2.33;69.91;99967.77;1695270;82;20970;-80
2020/12/07 10:29:35;;;;;;;15.43;8.10;;;;;;;2.38;69.82;99960.48;1695996;81;20986;-80
2020/12/07 10:32:03;;;;;;;17.25;8.63;;;;;;;2.34;69.94;99956.42;1694435;82;28392;-80
2020/12/07 10:34:29;;;;;;;;;;;;;;;2.40;69.57;99955.99;1687811;81;21200;-80
2020/12/07 10:36:55;;;;;;;17.80;8.00;;;;;;;2.41;69.54;99960.27;1686337;82;21302;-80
2020/12/07 10:39:21;;;;;;;18.67;8.07;;;;;;;2.49;69.30;99963.16;1688882;81;20970;-79
2020/12/07 10:41:46;;;;;;;14.80;7.03;;;;;;;2.53;69.31;99961.64;1688501;82;21022;-79
2020/12/07 10:44:12;;;;;;;18.13;9.13;;;;;;;2.54;69.01;99958.92;1688170;82;26382;-81
2020/12/07 10:46:39;;;;;;;18.47;8.47;;;;;;;2.57;69.00;99959.19;1686995;82;25274;-79
2020/12/07 10:49:08;;;;;;;18.70;8.63;;;;;;;2.66;68.83;99950.70;1691465;82;21255;-79
2020/12/07 10:51:34;;;;;;;15.83;8.30;;;;;;;2.64;68.63;99943.45;1690308;81;21535;-79
2020/12/07 10:54:01;;;;;;;20.32;8.93;;;;;;;2.66;68.72;99945.49;1706251;81;21307;-80
2020/12/07 10:56:27;;;;;;;11.43;6.00;;;;;;;2.62;68.62;99939.65;1690381;82;21270;-80
2020/12/07 10:58:53;;;;;;;14.13;7.37;;;;;;;2.70;68.53;99949.52;1694704;82;21172;-83
2020/12/07 11:01:19;;;;;;;16.73;8.53;;;;;;;2.74;68.14;99949.67;1695426;82;21619;-80
2020/12/07 11:03:47;;;;;;;18.10;8.10;;;;;;;2.78;68.17;99944.61;1682544;82;21152;-79
2020/12/07 11:06:21;;;;;;;17.23;8.53;;;;;;;2.93;68.02;99947.03;1683385;82;21708;-80
2020/12/07 11:08:53;;;;;;;;;;;;;;;2.93;67.74;99952.25;1691989;82;21189;-84
2020/12/07 11:11:15;;;;;;;16.97;8.25;;;;;;;2.93;67.74;99939.21;1696536;81;20305;-81
2020/12/07 11:13:40;;;;;;;18.20;8.58;;;;;;;3.03;67.53;99937.58;1698951;82;21233;-82
2020/12/07 11:16:15;;;;;;;16.87;8.30;;;;;;;3.09;67.27;99943.64;1687977;81;21615;-81
2020/12/07 11:18:41;;;;;;;15.60;8.20;;;;;;;3.01;67.25;99931.65;1699729;81;21839;-80
2020/12/07 11:21:14;;;;;;;15.80;8.55;;;;;;;3.07;67.09;99927.28;1686386;81;21185;-82
2020/12/07 11:23:44;;;;;;;14.73;8.05;;;;;;;3.14;67.02;99937.64;1692484;82;21600;-80
2020/12/07 11:26:11;;;;;;;15.98;8.63;;;;;;;3.16;66.78;99930.52;1695702;81;21357;-75
2020/12/07 11:28:38;;;;;;;14.58;7.72;;;;;;;3.11;66.76;99924.82;1691717;82;21213;-79
2020/12/07 11:31:08;;;;;;;15.88;8.13;;;;;;;3.13;66.55;99920.31;1680747;82;21640;-80
2020/12/07 11:33:34;;;;;;;17.30;8.48;;;;;;;3.14;66.58;99924.59;1690254;81;21795;-82
2020/12/07 11:36:01;;;;;;;14.63;8.10;;;;;;;3.18;66.44;99922.58;1698005;82;25276;-81
2020/12/07 11:38:31;;;;;;;15.32;7.83;;;;;;;3.36;66.10;99921.69;1698148;82;21778;-79
2020/12/07 11:46:05;;;;;;;14.00;8.13;;;;;;;3.50;65.68;99942.83;1686441;82;28417;-81
2020/12/07 11:48:30;;;;;;;15.18;7.83;;;;;;;3.57;65.67;99942.25;1680250;82;26095;-79
2020/12/07 11:50:56;;;;;;;15.10;8.20;;;;;;;3.54;65.67;99941.19;1689269;82;22280;-79
2020/12/07 11:53:22;;;;;;;19.87;8.73;;;;;;;3.42;65.74;99947.33;1695587;82;25251;-81
2020/12/07 11:55:48;;;;;;;16.23;8.40;;;;;;;3.30;65.83;99935.19;1685638;82;20963;-83
2020/12/07 11:58:13;;;;;;;17.00;8.40;;;;;;;3.28;65.91;99924.02;1688990;82;28664;-83
2020/12/07 12:00:39;;;;;;;16.75;8.53;;;;;;;3.34;65.82;99935.30;1689226;82;26196;-80
2020/12/07 12:03:05;;;;;;;18.13;8.97;;;;;;;3.31;66.01;99937.69;1686368;82;21508;-82
2020/12/07 12:05:31;;;;;;;17.23;8.33;;;;;;;3.27;65.99;99930.20;1690137;82;23721;-80
2020/12/07 12:07:57;;;;;;;17.93;8.77;;;;;;;3.27;66.09;99935.42;1678973;82;22884;-81
2020/12/07 12:10:23;;;;;;;15.68;8.08;;;;;;;3.19;66.08;99932.90;1691371;81;27718;-87
2020/12/07 12:12:48;;;;;;;13.90;7.87;;;;;;;3.20;65.87;99934.57;1684646;81;26185;-80